sensor_id;sensor_type;location;lat;lon;timestamp;P1;durP1;ratioP1;P2;durP2;ratioP2
826;SDS011;395;48.132;11.608;2022-11-15T00:00:40;6.30;;;5.17;;
826;SDS011;395;48.132;11.608;2022-11-15T00:03:06;5.00;;;4.37;;
826;SDS011;395;48.132;11.608;2022-11-15T00:05:34;5.20;;;4.27;;
826;SDS011;395;48.132;11.608;2022-11-15T00:08:01;4.90;;;4.40;;
826;SDS011;395;48.132;11.608;2022-11-15T00:10:26;5.77;;;4.80;;
826;SDS011;395;48.132;11.608;2022-11-15T00:12:52;5.70;;;4.47;;
826;SDS011;395;48.132;11.608;2022-11-15T00:15:18;4.80;;;4.30;;
826;SDS011;395;48.132;11.608;2022-11-15T00:17:44;5.30;;;4.73;;
826;SDS011;395;48.132;11.608;2022-11-15T00:20:13;4.45;;;4.05;;
826;SDS011;395;48.132;11.608;2022-11-15T00:22:38;4.13;;;3.80;;
826;SDS011;395;48.132;11.608;2022-11-15T00:25:04;5.50;;;4.33;;
826;SDS011;395;48.132;11.608;2022-11-15T00:27:30;5.50;;;3.92;;
826;SDS011;395;48.132;11.608;2022-11-15T00:29:56;4.20;;;3.80;;
826;SDS011;395;48.132;11.608;2022-11-15T00:32:24;4.33;;;3.67;;
826;SDS011;395;48.132;11.608;2022-11-15T00:34:50;4.38;;;3.90;;
826;SDS011;395;48.132;11.608;2022-11-15T00:37:15;4.27;;;3.63;;
826;SDS011;395;48.132;11.608;2022-11-15T00:39:41;5.60;;;3.60;;
826;SDS011;395;48.132;11.608;2022-11-15T00:42:07;3.80;;;3.30;;
826;SDS011;395;48.132;11.608;2022-11-15T00:44:32;5.37;;;4.40;;
826;SDS011;395;48.132;11.608;2022-11-15T00:46:58;4.73;;;3.80;;
826;SDS011;395;48.132;11.608;2022-11-15T00:49:24;4.85;;;4.35;;
826;SDS011;395;48.132;11.608;2022-11-15T00:51:51;3.83;;;3.50;;
826;SDS011;395;48.132;11.608;2022-11-15T00:54:16;4.72;;;3.97;;
826;SDS011;395;48.132;11.608;2022-11-15T00:56:42;5.47;;;4.17;;
826;SDS011;395;48.132;11.608;2022-11-15T00:59:08;4.60;;;4.13;;
826;SDS011;395;48.132;11.608;2022-11-15T01:01:33;4.50;;;4.10;;
826;SDS011;395;48.132;11.608;2022-11-15T01:03:59;4.57;;;3.50;;
826;SDS011;395;48.132;11.608;2022-11-15T01:06:25;4.27;;;3.87;;
826;SDS011;395;48.132;11.608;2022-11-15T01:08:50;4.23;;;3.83;;
826;SDS011;395;48.132;11.608;2022-11-15T01:11:16;4.03;;;3.63;;
826;SDS011;395;48.132;11.608;2022-11-15T01:13:42;4.60;;;4.20;;
826;SDS011;395;48.132;11.608;2022-11-15T01:16:14;4.90;;;3.60;;
826;SDS011;395;48.132;11.608;2022-11-15T01:18:42;3.60;;;3.30;;
826;SDS011;395;48.132;11.608;2022-11-15T01:21:09;3.83;;;3.53;;
826;SDS011;395;48.132;11.608;2022-11-15T01:23:37;4.18;;;3.78;;
826;SDS011;395;48.132;11.608;2022-11-15T01:26:04;3.95;;;3.63;;
826;SDS011;395;48.132;11.608;2022-11-15T01:28:32;4.13;;;3.72;;
826;SDS011;395;48.132;11.608;2022-11-15T01:31:00;3.72;;;3.40;;
826;SDS011;395;48.132;11.608;2022-11-15T01:33:27;3.97;;;3.63;;
826;SDS011;395;48.132;11.608;2022-11-15T01:35:53;4.07;;;3.67;;
826;SDS011;395;48.132;11.608;2022-11-15T01:38:19;4.97;;;4.10;;
826;SDS011;395;48.132;11.608;2022-11-15T01:40:45;4.40;;;4.00;;
826;SDS011;395;48.132;11.608;2022-11-15T01:45:51;4.38;;;3.85;;
826;SDS011;395;48.132;11.608;2022-11-15T01:48:21;6.68;;;4.78;;
826;SDS011;395;48.132;11.608;2022-11-15T01:50:50;5.03;;;4.47;;
826;SDS011;395;48.132;11.608;2022-11-15T01:53:16;4.82;;;4.32;;
826;SDS011;395;48.132;11.608;2022-11-15T01:55:44;5.55;;;4.85;;
826;SDS011;395;48.132;11.608;2022-11-15T01:58:09;4.93;;;4.40;;
826;SDS011;395;48.132;11.608;2022-11-15T02:00:35;6.00;;;4.50;;
826;SDS011;395;48.132;11.608;2022-11-15T02:03:01;5.87;;;4.17;;
826;SDS011;395;48.132;11.608;2022-11-15T02:05:27;4.25;;;3.85;;
826;SDS011;395;48.132;11.608;2022-11-15T02:07:55;5.20;;;4.15;;
826;SDS011;395;48.132;11.608;2022-11-15T02:10:22;4.40;;;3.50;;
826;SDS011;395;48.132;11.608;2022-11-15T02:12:49;3.65;;;3.33;;
826;SDS011;395;48.132;11.608;2022-11-15T02:15:16;3.55;;;3.15;;
826;SDS011;395;48.132;11.608;2022-11-15T02:18:06;3.42;;;3.15;;
826;SDS011;395;48.132;11.608;2022-11-15T02:27:03;3.67;;;3.35;;
826;SDS011;395;48.132;11.608;2022-11-15T02:29:01;5.35;;;3.08;;
826;SDS011;395;48.132;11.608;2022-11-15T02:32:34;3.72;;;3.42;;
826;SDS011;395;48.132;11.608;2022-11-15T02:43:18;4.25;;;3.20;;
826;SDS011;395;48.132;11.608;2022-11-15T02:46:10;3.45;;;3.15;;
826;SDS011;395;48.132;11.608;2022-11-15T02:48:38;3.10;;;2.80;;
826;SDS011;395;48.132;11.608;2022-11-15T02:51:05;3.53;;;2.80;;
826;SDS011;395;48.132;11.608;2022-11-15T02:53:32;3.00;;;2.70;;
826;SDS011;395;48.132;11.608;2022-11-15T02:55:58;2.65;;;2.45;;
826;SDS011;395;48.132;11.608;2022-11-15T03:01:00;3.30;;;3.00;;
826;SDS011;395;48.132;11.608;2022-11-15T03:03:38;2.95;;;2.75;;
826;SDS011;395;48.132;11.608;2022-11-15T03:11:45;3.75;;;3.13;;
826;SDS011;395;48.132;11.608;2022-11-15T03:19:37;4.90;;;3.63;;
826;SDS011;395;48.132;11.608;2022-11-15T03:22:04;3.47;;;3.17;;
826;SDS011;395;48.132;11.608;2022-11-15T03:24:34;2.90;;;2.60;;
826;SDS011;395;48.132;11.608;2022-11-15T03:27:02;4.20;;;3.45;;
826;SDS011;395;48.132;11.608;2022-11-15T03:29:31;3.30;;;3.00;;
826;SDS011;395;48.132;11.608;2022-11-15T03:32:02;5.13;;;3.22;;
826;SDS011;395;48.132;11.608;2022-11-15T03:34:34;3.10;;;2.75;;
826;SDS011;395;48.132;11.608;2022-11-15T03:37:14;3.65;;;3.00;;
826;SDS011;395;48.132;11.608;2022-11-15T03:39:42;4.10;;;3.38;;
826;SDS011;395;48.132;11.608;2022-11-15T03:44:51;3.17;;;2.88;;
826;SDS011;395;48.132;11.608;2022-11-15T03:50:07;3.33;;;2.90;;
826;SDS011;395;48.132;11.608;2022-11-15T03:52:37;2.75;;;2.55;;
826;SDS011;395;48.132;11.608;2022-11-15T03:55:06;2.70;;;2.50;;
826;SDS011;395;48.132;11.608;2022-11-15T03:57:33;3.20;;;2.90;;
826;SDS011;395;48.132;11.608;2022-11-15T03:59:59;3.93;;;2.90;;
826;SDS011;395;48.132;11.608;2022-11-15T04:02:25;3.60;;;2.87;;
826;SDS011;395;48.132;11.608;2022-11-15T04:04:51;3.63;;;3.30;;
826;SDS011;395;48.132;11.608;2022-11-15T04:07:16;3.73;;;3.33;;
826;SDS011;395;48.132;11.608;2022-11-15T04:09:42;4.37;;;3.30;;
826;SDS011;395;48.132;11.608;2022-11-15T04:12:26;4.47;;;3.17;;
826;SDS011;395;48.132;11.608;2022-11-15T04:15:17;3.50;;;3.10;;
826;SDS011;395;48.132;11.608;2022-11-15T04:22:57;3.42;;;3.03;;
826;SDS011;395;48.132;11.608;2022-11-15T04:25:43;3.70;;;3.13;;
826;SDS011;395;48.132;11.608;2022-11-15T04:28:09;3.40;;;2.95;;
826;SDS011;395;48.132;11.608;2022-11-15T04:30:36;3.05;;;2.75;;
826;SDS011;395;48.132;11.608;2022-11-15T04:33:01;3.90;;;3.47;;
826;SDS011;395;48.132;11.608;2022-11-15T04:35:27;3.17;;;2.87;;
826;SDS011;395;48.132;11.608;2022-11-15T04:37:56;3.28;;;2.90;;
826;SDS011;395;48.132;11.608;2022-11-15T04:40:22;3.50;;;3.17;;
826;SDS011;395;48.132;11.608;2022-11-15T04:42:48;4.17;;;3.07;;
826;SDS011;395;48.132;11.608;2022-11-15T04:45:13;4.70;;;3.27;;
826;SDS011;395;48.132;11.608;2022-11-15T04:47:39;4.00;;;2.90;;
826;SDS011;395;48.132;11.608;2022-11-15T04:50:07;4.13;;;3.50;;
826;SDS011;395;48.132;11.608;2022-11-15T04:52:33;3.27;;;2.97;;
826;SDS011;395;48.132;11.608;2022-11-15T04:54:59;4.13;;;3.73;;
826;SDS011;395;48.132;11.608;2022-11-15T04:57:24;3.50;;;3.07;;
826;SDS011;395;48.132;11.608;2022-11-15T04:59:50;4.13;;;3.13;;
826;SDS011;395;48.132;11.608;2022-11-15T05:02:16;2.83;;;2.63;;
826;SDS011;395;48.132;11.608;2022-11-15T05:04:41;2.77;;;2.57;;
826;SDS011;395;48.132;11.608;2022-11-15T05:07:07;3.60;;;2.70;;
826;SDS011;395;48.132;11.608;2022-11-15T05:09:33;4.00;;;3.27;;
826;SDS011;395;48.132;11.608;2022-11-15T05:11:58;5.20;;;3.20;;
826;SDS011;395;48.132;11.608;2022-11-15T05:14:24;3.17;;;2.70;;
826;SDS011;395;48.132;11.608;2022-11-15T05:16:49;2.90;;;2.60;;
826;SDS011;395;48.132;11.608;2022-11-15T05:19:15;2.90;;;2.70;;
826;SDS011;395;48.132;11.608;2022-11-15T05:21:41;2.90;;;2.53;;
826;SDS011;395;48.132;11.608;2022-11-15T05:24:08;4.43;;;2.50;;
826;SDS011;395;48.132;11.608;2022-11-15T05:26:35;3.70;;;2.38;;
826;SDS011;395;48.132;11.608;2022-11-15T05:29:00;2.80;;;2.50;;
826;SDS011;395;48.132;11.608;2022-11-15T05:31:26;3.90;;;2.83;;
826;SDS011;395;48.132;11.608;2022-11-15T05:33:53;3.83;;;2.75;;
826;SDS011;395;48.132;11.608;2022-11-15T05:36:22;2.55;;;2.25;;
826;SDS011;395;48.132;11.608;2022-11-15T05:39:00;3.60;;;2.58;;
826;SDS011;395;48.132;11.608;2022-11-15T05:41:31;3.95;;;2.78;;
826;SDS011;395;48.132;11.608;2022-11-15T05:44:03;4.82;;;3.45;;
826;SDS011;395;48.132;11.608;2022-11-15T05:46:31;3.17;;;2.42;;
826;SDS011;395;48.132;11.608;2022-11-15T05:48:58;2.92;;;2.53;;
826;SDS011;395;48.132;11.608;2022-11-15T05:51:24;2.88;;;2.30;;
826;SDS011;395;48.132;11.608;2022-11-15T05:53:53;2.75;;;2.30;;
826;SDS011;395;48.132;11.608;2022-11-15T05:56:21;2.60;;;2.40;;
826;SDS011;395;48.132;11.608;2022-11-15T05:58:47;4.07;;;2.97;;
826;SDS011;395;48.132;11.608;2022-11-15T06:01:13;2.87;;;2.60;;
826;SDS011;395;48.132;11.608;2022-11-15T06:03:39;3.50;;;2.63;;
826;SDS011;395;48.132;11.608;2022-11-15T06:06:04;3.07;;;2.77;;
826;SDS011;395;48.132;11.608;2022-11-15T06:08:30;4.93;;;3.03;;
826;SDS011;395;48.132;11.608;2022-11-15T06:10:56;4.67;;;3.03;;
826;SDS011;395;48.132;11.608;2022-11-15T06:13:27;9.85;;;3.40;;
826;SDS011;395;48.132;11.608;2022-11-15T06:15:55;5.30;;;3.10;;
826;SDS011;395;48.132;11.608;2022-11-15T06:18:21;5.25;;;3.20;;
826;SDS011;395;48.132;11.608;2022-11-15T06:20:47;4.63;;;2.93;;
826;SDS011;395;48.132;11.608;2022-11-15T06:23:12;3.77;;;2.90;;
826;SDS011;395;48.132;11.608;2022-11-15T06:25:39;4.13;;;2.70;;
826;SDS011;395;48.132;11.608;2022-11-15T06:28:05;3.40;;;3.00;;
826;SDS011;395;48.132;11.608;2022-11-15T06:30:30;4.80;;;3.63;;
826;SDS011;395;48.132;11.608;2022-11-15T06:33:05;5.20;;;3.30;;
826;SDS011;395;48.132;11.608;2022-11-15T06:35:33;5.03;;;2.90;;
826;SDS011;395;48.132;11.608;2022-11-15T06:38:03;4.07;;;3.40;;
826;SDS011;395;48.132;11.608;2022-11-15T06:40:32;4.78;;;3.28;;
826;SDS011;395;48.132;11.608;2022-11-15T06:42:59;3.03;;;2.80;;
826;SDS011;395;48.132;11.608;2022-11-15T06:45:25;4.73;;;2.90;;
826;SDS011;395;48.132;11.608;2022-11-15T06:47:51;3.40;;;3.10;;
826;SDS011;395;48.132;11.608;2022-11-15T06:50:17;5.07;;;3.30;;
826;SDS011;395;48.132;11.608;2022-11-15T06:52:42;3.97;;;3.00;;
826;SDS011;395;48.132;11.608;2022-11-15T06:55:08;4.07;;;3.00;;
826;SDS011;395;48.132;11.608;2022-11-15T06:57:34;5.53;;;3.45;;
826;SDS011;395;48.132;11.608;2022-11-15T07:00:00;4.32;;;3.20;;
826;SDS011;395;48.132;11.608;2022-11-15T07:02:28;9.00;;;3.92;;
826;SDS011;395;48.132;11.608;2022-11-15T07:04:54;7.57;;;3.73;;
826;SDS011;395;48.132;11.608;2022-11-15T07:07:19;7.70;;;3.60;;
826;SDS011;395;48.132;11.608;2022-11-15T07:09:45;5.73;;;3.43;;
826;SDS011;395;48.132;11.608;2022-11-15T07:12:10;3.40;;;3.10;;
826;SDS011;395;48.132;11.608;2022-11-15T07:14:36;3.03;;;2.73;;
826;SDS011;395;48.132;11.608;2022-11-15T07:17:05;4.50;;;3.10;;
826;SDS011;395;48.132;11.608;2022-11-15T07:19:37;8.95;;;3.92;;
826;SDS011;395;48.132;11.608;2022-11-15T07:22:02;4.33;;;2.73;;
826;SDS011;395;48.132;11.608;2022-11-15T07:24:28;4.83;;;2.97;;
826;SDS011;395;48.132;11.608;2022-11-15T07:26:54;4.00;;;3.17;;
826;SDS011;395;48.132;11.608;2022-11-15T07:29:19;3.97;;;3.10;;
826;SDS011;395;48.132;11.608;2022-11-15T07:31:45;5.37;;;3.10;;
826;SDS011;395;48.132;11.608;2022-11-15T07:34:10;11.10;;;4.10;;
826;SDS011;395;48.132;11.608;2022-11-15T07:36:36;4.53;;;4.03;;
826;SDS011;395;48.132;11.608;2022-11-15T07:39:02;4.43;;;3.83;;
826;SDS011;395;48.132;11.608;2022-11-15T07:41:28;5.80;;;3.70;;
826;SDS011;395;48.132;11.608;2022-11-15T07:43:54;5.25;;;3.88;;
826;SDS011;395;48.132;11.608;2022-11-15T07:46:20;4.43;;;3.27;;
826;SDS011;395;48.132;11.608;2022-11-15T07:48:45;8.27;;;4.10;;
826;SDS011;395;48.132;11.608;2022-11-15T07:51:12;5.70;;;3.60;;
826;SDS011;395;48.132;11.608;2022-11-15T07:53:39;6.43;;;3.78;;
826;SDS011;395;48.132;11.608;2022-11-15T07:56:05;6.95;;;3.60;;
826;SDS011;395;48.132;11.608;2022-11-15T07:58:32;7.88;;;3.45;;
826;SDS011;395;48.132;11.608;2022-11-15T08:00:58;5.50;;;3.40;;
826;SDS011;395;48.132;11.608;2022-11-15T08:03:27;3.08;;;2.78;;
826;SDS011;395;48.132;11.608;2022-11-15T08:05:53;3.97;;;3.57;;
826;SDS011;395;48.132;11.608;2022-11-15T08:08:18;4.80;;;3.13;;
826;SDS011;395;48.132;11.608;2022-11-15T08:10:44;7.30;;;3.53;;
826;SDS011;395;48.132;11.608;2022-11-15T08:13:10;4.40;;;3.23;;
826;SDS011;395;48.132;11.608;2022-11-15T08:15:37;3.35;;;3.05;;
826;SDS011;395;48.132;11.608;2022-11-15T08:18:04;5.30;;;3.65;;
826;SDS011;395;48.132;11.608;2022-11-15T08:20:33;5.80;;;4.03;;
826;SDS011;395;48.132;11.608;2022-11-15T08:23:00;4.15;;;3.42;;
826;SDS011;395;48.132;11.608;2022-11-15T08:25:28;4.13;;;2.92;;
826;SDS011;395;48.132;11.608;2022-11-15T08:27:58;7.60;;;3.75;;
826;SDS011;395;48.132;11.608;2022-11-15T08:30:26;8.90;;;3.70;;
826;SDS011;395;48.132;11.608;2022-11-15T08:32:53;5.43;;;3.90;;
826;SDS011;395;48.132;11.608;2022-11-15T08:35:21;4.13;;;3.65;;
826;SDS011;395;48.132;11.608;2022-11-15T08:37:47;6.43;;;4.20;;
826;SDS011;395;48.132;11.608;2022-11-15T08:40:13;4.80;;;3.73;;
826;SDS011;395;48.132;11.608;2022-11-15T08:42:39;6.63;;;4.70;;
826;SDS011;395;48.132;11.608;2022-11-15T08:45:05;7.22;;;4.80;;
826;SDS011;395;48.132;11.608;2022-11-15T08:47:32;7.23;;;4.50;;
826;SDS011;395;48.132;11.608;2022-11-15T08:49:58;6.20;;;4.87;;
826;SDS011;395;48.132;11.608;2022-11-15T08:52:23;6.00;;;5.00;;
826;SDS011;395;48.132;11.608;2022-11-15T08:54:49;5.23;;;4.03;;
826;SDS011;395;48.132;11.608;2022-11-15T08:57:15;8.77;;;4.83;;
826;SDS011;395;48.132;11.608;2022-11-15T08:59:41;6.17;;;4.07;;
826;SDS011;395;48.132;11.608;2022-11-15T09:02:10;4.80;;;4.20;;
826;SDS011;395;48.132;11.608;2022-11-15T09:04:39;4.40;;;4.03;;
826;SDS011;395;48.132;11.608;2022-11-15T09:07:06;5.07;;;3.97;;
826;SDS011;395;48.132;11.608;2022-11-15T09:09:31;6.17;;;4.87;;
826;SDS011;395;48.132;11.608;2022-11-15T09:11:57;5.23;;;4.43;;
826;SDS011;395;48.132;11.608;2022-11-15T09:14:23;4.70;;;3.37;;
826;SDS011;395;48.132;11.608;2022-11-15T09:16:48;3.57;;;3.27;;
826;SDS011;395;48.132;11.608;2022-11-15T09:19:14;4.53;;;2.97;;
826;SDS011;395;48.132;11.608;2022-11-15T09:21:40;5.17;;;3.10;;
826;SDS011;395;48.132;11.608;2022-11-15T09:24:05;4.80;;;3.30;;
826;SDS011;395;48.132;11.608;2022-11-15T09:26:31;7.53;;;4.13;;
826;SDS011;395;48.132;11.608;2022-11-15T09:28:57;4.50;;;4.10;;
826;SDS011;395;48.132;11.608;2022-11-15T09:31:22;5.90;;;3.53;;
826;SDS011;395;48.132;11.608;2022-11-15T09:33:48;3.57;;;3.27;;
826;SDS011;395;48.132;11.608;2022-11-15T09:36:14;5.80;;;3.63;;
826;SDS011;395;48.132;11.608;2022-11-15T09:38:39;5.50;;;4.17;;
826;SDS011;395;48.132;11.608;2022-11-15T09:46:39;4.88;;;3.70;;
826;SDS011;395;48.132;11.608;2022-11-15T09:49:06;4.40;;;3.20;;
826;SDS011;395;48.132;11.608;2022-11-15T09:51:38;4.37;;;3.60;;
826;SDS011;395;48.132;11.608;2022-11-15T09:54:26;4.37;;;3.40;;
826;SDS011;395;48.132;11.608;2022-11-15T09:56:52;3.90;;;3.60;;
826;SDS011;395;48.132;11.608;2022-11-15T10:05:25;4.03;;;3.13;;
826;SDS011;395;48.132;11.608;2022-11-15T10:13:30;5.40;;;3.77;;
826;SDS011;395;48.132;11.608;2022-11-15T10:16:04;3.30;;;3.00;;
826;SDS011;395;48.132;11.608;2022-11-15T10:18:48;4.00;;;2.80;;
826;SDS011;395;48.132;11.608;2022-11-15T10:21:32;2.90;;;2.60;;
826;SDS011;395;48.132;11.608;2022-11-15T10:24:19;3.17;;;2.80;;
826;SDS011;395;48.132;11.608;2022-11-15T10:26:49;3.27;;;2.43;;
826;SDS011;395;48.132;11.608;2022-11-15T10:29:21;2.30;;;2.10;;
826;SDS011;395;48.132;11.608;2022-11-15T10:31:48;3.00;;;2.27;;
826;SDS011;395;48.132;11.608;2022-11-15T10:34:19;3.60;;;2.40;;
826;SDS011;395;48.132;11.608;2022-11-15T10:36:57;2.77;;;1.90;;
826;SDS011;395;48.132;11.608;2022-11-15T10:39:24;2.97;;;1.93;;
826;SDS011;395;48.132;11.608;2022-11-15T10:41:50;2.40;;;2.20;;
826;SDS011;395;48.132;11.608;2022-11-15T10:47:21;2.27;;;2.07;;
826;SDS011;395;48.132;11.608;2022-11-15T10:50:47;3.33;;;2.20;;
826;SDS011;395;48.132;11.608;2022-11-15T10:52:55;3.30;;;2.60;;
826;SDS011;395;48.132;11.608;2022-11-15T10:55:22;4.70;;;2.50;;
826;SDS011;395;48.132;11.608;2022-11-15T10:57:52;3.40;;;2.60;;
826;SDS011;395;48.132;11.608;2022-11-15T11:00:29;2.93;;;2.43;;
826;SDS011;395;48.132;11.608;2022-11-15T11:03:04;2.57;;;2.37;;
826;SDS011;395;48.132;11.608;2022-11-15T11:05:35;4.17;;;2.47;;
826;SDS011;395;48.132;11.608;2022-11-15T11:08:04;3.73;;;2.20;;
826;SDS011;395;48.132;11.608;2022-11-15T11:10:36;5.70;;;2.40;;
826;SDS011;395;48.132;11.608;2022-11-15T11:13:14;2.17;;;2.07;;
826;SDS011;395;48.132;11.608;2022-11-15T11:30:19;2.70;;;2.27;;
826;SDS011;395;48.132;11.608;2022-11-15T11:33:07;2.77;;;2.30;;
826;SDS011;395;48.132;11.608;2022-11-15T11:46:24;3.03;;;2.17;;
826;SDS011;395;48.132;11.608;2022-11-15T11:49:03;2.43;;;2.03;;
826;SDS011;395;48.132;11.608;2022-11-15T11:52:00;2.10;;;1.90;;
826;SDS011;395;48.132;11.608;2022-11-15T11:57:47;2.23;;;2.00;;
826;SDS011;395;48.132;11.608;2022-11-15T12:00:17;5.57;;;2.20;;
826;SDS011;395;48.132;11.608;2022-11-15T12:05:45;1.80;;;1.70;;
826;SDS011;395;48.132;11.608;2022-11-15T12:10:51;2.90;;;1.97;;
826;SDS011;395;48.132;11.608;2022-11-15T12:13:25;2.73;;;2.00;;
826;SDS011;395;48.132;11.608;2022-11-15T12:16:14;1.70;;;1.60;;
826;SDS011;395;48.132;11.608;2022-11-15T12:18:46;2.37;;;2.17;;
826;SDS011;395;48.132;11.608;2022-11-15T12:21:21;2.10;;;1.90;;
826;SDS011;395;48.132;11.608;2022-11-15T12:23:58;3.23;;;1.83;;
826;SDS011;395;48.132;11.608;2022-11-15T12:26:40;2.50;;;2.30;;
826;SDS011;395;48.132;11.608;2022-11-15T12:29:16;2.30;;;2.10;;
826;SDS011;395;48.132;11.608;2022-11-15T12:31:57;2.63;;;2.27;;
826;SDS011;395;48.132;11.608;2022-11-15T12:36:56;4.70;;;2.70;;
826;SDS011;395;48.132;11.608;2022-11-15T12:39:21;5.50;;;2.87;;
826;SDS011;395;48.132;11.608;2022-11-15T12:45:03;3.10;;;2.80;;
826;SDS011;395;48.132;11.608;2022-11-15T13:01:55;3.27;;;2.30;;
826;SDS011;395;48.132;11.608;2022-11-15T13:12:00;3.30;;;2.37;;
826;SDS011;395;48.132;11.608;2022-11-15T13:14:53;2.90;;;2.27;;
826;SDS011;395;48.132;11.608;2022-11-15T13:20:07;5.00;;;2.27;;
826;SDS011;395;48.132;11.608;2022-11-15T13:30:39;10.50;;;3.47;;
826;SDS011;395;48.132;11.608;2022-11-15T13:33:35;9.37;;;3.23;;
826;SDS011;395;48.132;11.608;2022-11-15T13:36:08;8.63;;;3.20;;
826;SDS011;395;48.132;11.608;2022-11-15T13:38:55;8.93;;;3.50;;
826;SDS011;395;48.132;11.608;2022-11-15T13:41:50;8.83;;;3.10;;
826;SDS011;395;48.132;11.608;2022-11-15T13:44:21;13.80;;;3.80;;
826;SDS011;395;48.132;11.608;2022-11-15T13:47:00;8.90;;;3.40;;
826;SDS011;395;48.132;11.608;2022-11-15T13:49:38;4.17;;;2.90;;
826;SDS011;395;48.132;11.608;2022-11-15T13:52:05;7.37;;;3.10;;
826;SDS011;395;48.132;11.608;2022-11-15T13:57:30;11.70;;;3.93;;
826;SDS011;395;48.132;11.608;2022-11-15T14:02:56;6.33;;;3.67;;
826;SDS011;395;48.132;11.608;2022-11-15T14:05:29;6.50;;;3.30;;
826;SDS011;395;48.132;11.608;2022-11-15T14:07:57;7.17;;;2.60;;
826;SDS011;395;48.132;11.608;2022-11-15T14:10:34;7.37;;;2.57;;
826;SDS011;395;48.132;11.608;2022-11-15T14:13:03;6.50;;;2.33;;
826;SDS011;395;48.132;11.608;2022-11-15T14:15:31;4.47;;;2.80;;
826;SDS011;395;48.132;11.608;2022-11-15T14:17:59;5.40;;;2.40;;
826;SDS011;395;48.132;11.608;2022-11-15T14:22:51;8.33;;;2.47;;
826;SDS011;395;48.132;11.608;2022-11-15T14:25:21;3.10;;;2.43;;
826;SDS011;395;48.132;11.608;2022-11-15T14:30:39;8.50;;;2.93;;
826;SDS011;395;48.132;11.608;2022-11-15T14:35:49;3.77;;;2.50;;
826;SDS011;395;48.132;11.608;2022-11-15T14:38:16;4.10;;;2.67;;
826;SDS011;395;48.132;11.608;2022-11-15T14:40:42;4.00;;;3.13;;
826;SDS011;395;48.132;11.608;2022-11-15T14:43:09;3.23;;;2.83;;
826;SDS011;395;48.132;11.608;2022-11-15T14:45:36;3.10;;;2.73;;
826;SDS011;395;48.132;11.608;2022-11-15T14:48:02;3.03;;;2.60;;
826;SDS011;395;48.132;11.608;2022-11-15T14:50:28;2.63;;;2.03;;
826;SDS011;395;48.132;11.608;2022-11-15T14:52:54;2.60;;;2.40;;
826;SDS011;395;48.132;11.608;2022-11-15T14:55:24;3.87;;;3.17;;
826;SDS011;395;48.132;11.608;2022-11-15T14:58:00;3.00;;;2.40;;
826;SDS011;395;48.132;11.608;2022-11-15T15:00:28;3.37;;;2.47;;
826;SDS011;395;48.132;11.608;2022-11-15T15:02:55;11.60;;;3.30;;
826;SDS011;395;48.132;11.608;2022-11-15T15:05:34;3.93;;;3.53;;
826;SDS011;395;48.132;11.608;2022-11-15T15:08:02;7.93;;;4.20;;
826;SDS011;395;48.132;11.608;2022-11-15T15:10:31;4.83;;;2.77;;
826;SDS011;395;48.132;11.608;2022-11-15T15:13:20;4.10;;;3.27;;
826;SDS011;395;48.132;11.608;2022-11-15T15:15:48;5.33;;;4.83;;
826;SDS011;395;48.132;11.608;2022-11-15T15:18:15;4.17;;;3.77;;
826;SDS011;395;48.132;11.608;2022-11-15T15:20:41;5.13;;;4.60;;
826;SDS011;395;48.132;11.608;2022-11-15T15:23:15;5.13;;;4.47;;
826;SDS011;395;48.132;11.608;2022-11-15T15:25:43;8.17;;;5.30;;
826;SDS011;395;48.132;11.608;2022-11-15T15:28:10;6.23;;;5.47;;
826;SDS011;395;48.132;11.608;2022-11-15T15:30:36;6.00;;;5.17;;
826;SDS011;395;48.132;11.608;2022-11-15T15:33:03;5.90;;;5.13;;
826;SDS011;395;48.132;11.608;2022-11-15T15:35:29;6.00;;;5.40;;
826;SDS011;395;48.132;11.608;2022-11-15T15:37:56;7.03;;;5.43;;
826;SDS011;395;48.132;11.608;2022-11-15T15:40:23;5.83;;;5.30;;
826;SDS011;395;48.132;11.608;2022-11-15T15:42:50;6.07;;;5.47;;
826;SDS011;395;48.132;11.608;2022-11-15T15:45:16;6.10;;;5.43;;
826;SDS011;395;48.132;11.608;2022-11-15T15:47:43;6.80;;;5.40;;
826;SDS011;395;48.132;11.608;2022-11-15T15:50:32;6.47;;;5.57;;
826;SDS011;395;48.132;11.608;2022-11-15T15:52:59;9.60;;;6.10;;
826;SDS011;395;48.132;11.608;2022-11-15T15:55:27;7.47;;;6.10;;
826;SDS011;395;48.132;11.608;2022-11-15T15:57:53;7.10;;;6.40;;
826;SDS011;395;48.132;11.608;2022-11-15T16:00:20;9.27;;;7.50;;
826;SDS011;395;48.132;11.608;2022-11-15T16:02:48;8.20;;;6.17;;
826;SDS011;395;48.132;11.608;2022-11-15T16:05:14;7.47;;;6.77;;
826;SDS011;395;48.132;11.608;2022-11-15T16:07:40;8.00;;;6.37;;
826;SDS011;395;48.132;11.608;2022-11-15T16:10:18;7.30;;;6.30;;
826;SDS011;395;48.132;11.608;2022-11-15T16:12:52;7.53;;;6.53;;
826;SDS011;395;48.132;11.608;2022-11-15T16:15:19;10.00;;;6.70;;
826;SDS011;395;48.132;11.608;2022-11-15T16:17:52;8.67;;;7.10;;
826;SDS011;395;48.132;11.608;2022-11-15T16:20:40;8.40;;;7.57;;
826;SDS011;395;48.132;11.608;2022-11-15T16:23:08;6.87;;;5.40;;
826;SDS011;395;48.132;11.608;2022-11-15T16:25:44;8.60;;;6.80;;
826;SDS011;395;48.132;11.608;2022-11-15T16:28:23;6.17;;;5.57;;
826;SDS011;395;48.132;11.608;2022-11-15T16:33:28;6.50;;;5.83;;
826;SDS011;395;48.132;11.608;2022-11-15T16:35:54;7.20;;;6.50;;
826;SDS011;395;48.132;11.608;2022-11-15T16:38:19;6.77;;;6.17;;
826;SDS011;395;48.132;11.608;2022-11-15T16:40:45;6.80;;;6.20;;
826;SDS011;395;48.132;11.608;2022-11-15T16:43:12;7.13;;;5.90;;
826;SDS011;395;48.132;11.608;2022-11-15T16:45:39;8.93;;;6.87;;
826;SDS011;395;48.132;11.608;2022-11-15T16:48:05;8.40;;;6.40;;
826;SDS011;395;48.132;11.608;2022-11-15T16:50:31;8.10;;;5.97;;
826;SDS011;395;48.132;11.608;2022-11-15T16:53:03;10.37;;;7.00;;
826;SDS011;395;48.132;11.608;2022-11-15T16:55:29;8.33;;;7.33;;
826;SDS011;395;48.132;11.608;2022-11-15T16:57:55;9.33;;;7.10;;
826;SDS011;395;48.132;11.608;2022-11-15T17:00:22;7.17;;;6.47;;
826;SDS011;395;48.132;11.608;2022-11-15T17:02:49;9.97;;;7.17;;
826;SDS011;395;48.132;11.608;2022-11-15T17:05:16;7.83;;;7.03;;
826;SDS011;395;48.132;11.608;2022-11-15T17:07:45;6.83;;;6.13;;
826;SDS011;395;48.132;11.608;2022-11-15T17:10:19;8.03;;;6.50;;
826;SDS011;395;48.132;11.608;2022-11-15T17:12:46;10.53;;;6.97;;
826;SDS011;395;48.132;11.608;2022-11-15T17:15:12;9.10;;;7.33;;
826;SDS011;395;48.132;11.608;2022-11-15T17:17:38;10.87;;;7.60;;
826;SDS011;395;48.132;11.608;2022-11-15T17:20:05;8.83;;;6.80;;
826;SDS011;395;48.132;11.608;2022-11-15T17:22:40;9.40;;;7.30;;
826;SDS011;395;48.132;11.608;2022-11-15T17:25:06;10.03;;;8.50;;
826;SDS011;395;48.132;11.608;2022-11-15T17:27:32;9.40;;;8.40;;
826;SDS011;395;48.132;11.608;2022-11-15T17:29:57;11.37;;;9.03;;
826;SDS011;395;48.132;11.608;2022-11-15T17:32:23;20.13;;;8.93;;
826;SDS011;395;48.132;11.608;2022-11-15T17:34:49;9.40;;;8.50;;
826;SDS011;395;48.132;11.608;2022-11-15T17:37:14;10.87;;;8.40;;
826;SDS011;395;48.132;11.608;2022-11-15T17:39:40;11.80;;;8.83;;
826;SDS011;395;48.132;11.608;2022-11-15T17:42:06;12.07;;;9.03;;
826;SDS011;395;48.132;11.608;2022-11-15T17:44:31;14.30;;;10.30;;
826;SDS011;395;48.132;11.608;2022-11-15T17:46:57;11.87;;;10.10;;
826;SDS011;395;48.132;11.608;2022-11-15T17:49:23;15.03;;;9.80;;
826;SDS011;395;48.132;11.608;2022-11-15T17:51:48;13.57;;;9.27;;
826;SDS011;395;48.132;11.608;2022-11-15T17:54:14;12.70;;;9.10;;
826;SDS011;395;48.132;11.608;2022-11-15T17:56:40;10.63;;;9.40;;
826;SDS011;395;48.132;11.608;2022-11-15T17:59:06;10.80;;;8.70;;
826;SDS011;395;48.132;11.608;2022-11-15T18:01:33;10.37;;;8.73;;
826;SDS011;395;48.132;11.608;2022-11-15T18:04:01;10.37;;;8.67;;
826;SDS011;395;48.132;11.608;2022-11-15T18:06:29;12.80;;;7.77;;
826;SDS011;395;48.132;11.608;2022-11-15T18:08:57;13.10;;;8.10;;
826;SDS011;395;48.132;11.608;2022-11-15T18:11:24;10.07;;;7.53;;